Cardara, Kazakhstan
Current Conditions -  °F | °C
As of 10:00 PM on Wednesday 28 Jan 2015 (Local Time) from UTTT Reporting Station
Smoke Smoke  
Wind Chill: 20°   Ceiling: Unl
Heat Index: 27°   Visibility: 2.5mi
Dew Point: 19°   Wind: 6mph
Humidity: 74%   Direction: 100°E
Pressure: 30.24"   Gusts: NA
Location:  41.37°N, 68°E
Report Text: UTTT 281600Z 10005KT 4000 BR FU NSC M03/M07 Q1024 R88/CLRD70NOSIG
Loading
Personal Weather Stations






























Interactive Weather Map New forecast layout! Learn more

10-Day Weather Forecast

Advertisements
Track Severe Weather on mobile